Time;durP1;ratioP1;P1;durP2;ratioP2;P2;SDS_P1;SDS_P2;PMS_P1;PMS_P2;Temp;Humidity;BMP_temperature;BMP_pressure;BME280_temperature;BME280_humidity;BME280_pressure;Samples;Min_cycle;Max_cycle;Signal;HPM_P1;HPM_P2
2021/03/16 00:02:11;;;;;;;36.77;4.03;;;5.10;95.60;;;;;;5109558;28;20040;-63
2021/03/16 00:04:36;;;;;;;26.97;4.30;;;5.10;95.60;;;;;;5109239;28;20043;-63
2021/03/16 00:07:05;;;;;;;36.97;5.30;;;5.00;95.70;;;;;;5109369;28;20040;-63
2021/03/16 00:09:32;;;;;;;29.38;4.68;;;4.90;95.90;;;;;;5109569;28;20493;-64
2021/03/16 00:11:58;;;;;;;32.78;4.45;;;4.90;95.90;;;;;;5109206;28;20074;-63
2021/03/16 00:14:24;;;;;;;40.00;4.67;;;4.90;95.90;;;;;;5109081;28;20396;-63
2021/03/16 00:16:51;;;;;;;39.17;4.57;;;5.00;95.60;;;;;;5109560;28;20051;-63
2021/03/16 00:19:18;;;;;;;26.88;3.83;;;5.00;95.60;;;;;;5109136;28;20074;-63
2021/03/16 00:21:44;;;;;;;26.33;4.13;;;4.90;95.50;;;;;;5109138;28;20047;-63
2021/03/16 00:24:10;;;;;;;35.90;5.77;;;5.00;95.50;;;;;;5108307;28;20054;-63
2021/03/16 00:26:35;;;;;;;33.63;4.53;;;5.00;95.60;;;;;;5109158;28;20054;-64
2021/03/16 00:29:01;;;;;;;30.40;5.23;;;5.00;95.50;;;;;;5109004;28;20043;-64
2021/03/16 00:31:27;;;;;;;31.53;5.00;;;5.00;95.50;;;;;;5108640;28;20051;-63
2021/03/16 00:33:52;;;;;;;29.37;3.97;;;5.00;95.50;;;;;;5108897;28;20138;-64
2021/03/16 00:36:18;;;;;;;35.83;5.23;;;5.10;95.20;;;;;;5108870;28;20088;-63
2021/03/16 00:38:43;;;;;;;27.00;4.53;;;5.20;94.30;;;;;;5108748;28;20047;-63
2021/03/16 00:41:09;;;;;;;31.83;5.00;;;5.30;94.10;;;;;;5108561;28;20135;-63
2021/03/16 00:43:35;;;;;;;28.50;4.37;;;5.30;93.80;;;;;;5108944;28;20100;-63
2021/03/16 00:46:01;;;;;;;31.10;4.57;;;5.40;93.60;;;;;;5108711;28;20086;-63
2021/03/16 00:48:27;;;;;;;21.23;3.63;;;5.40;93.80;;;;;;5108842;28;20055;-63
2021/03/16 00:50:53;;;;;;;27.50;4.17;;;5.30;93.80;;;;;;5108386;28;20044;-63
2021/03/16 00:53:19;;;;;;;21.48;3.70;;;5.40;93.60;;;;;;5108416;28;20683;-63
2021/03/16 00:55:45;;;;;;;28.15;4.45;;;5.40;93.70;;;;;;5108798;28;20445;-63
2021/03/16 00:58:11;;;;;;;29.70;3.90;;;5.40;93.80;;;;;;5108759;28;20150;-62
2021/03/16 01:00:37;;;;;;;33.53;4.50;;;5.50;93.70;;;;;;5108345;28;20039;-63
2021/03/16 01:03:04;;;;;;;28.60;3.87;;;5.50;93.80;;;;;;5108698;28;20061;-63
2021/03/16 01:05:30;;;;;;;24.00;3.78;;;5.40;93.80;;;;;;5108750;28;20044;-63
2021/03/16 01:07:55;;;;;;;20.10;3.50;;;5.50;93.60;;;;;;5108439;28;20054;-61
2021/03/16 01:10:24;;;;;;;31.35;4.10;;;5.50;93.40;;;;;;5106952;28;20075;-63
2021/03/16 01:12:50;;;;;;;28.45;3.95;;;5.50;93.60;;;;;;5108315;28;20051;-63
2021/03/16 01:15:16;;;;;;;24.90;3.67;;;5.40;93.80;;;;;;5108518;28;20130;-63
2021/03/16 01:17:42;;;;;;;25.33;4.05;;;5.50;93.50;;;;;;5108179;28;20413;-63
2021/03/16 01:20:21;;;;;;;25.25;3.72;;;5.50;93.50;;;;;;5108400;28;20039;-63
2021/03/16 01:22:47;;;;;;;28.67;3.30;;;5.50;93.10;;;;;;5108599;28;20427;-62
2021/03/16 01:25:13;;;;;;;29.27;3.40;;;5.50;93.20;;;;;;5108061;28;20053;-63
2021/03/16 01:27:39;;;;;;;25.27;3.37;;;5.50;93.50;;;;;;5108296;28;20353;-63
2021/03/16 01:30:06;;;;;;;38.22;5.03;;;5.50;93.80;;;;;;5108575;28;20120;-62
2021/03/16 01:32:32;;;;;;;33.28;4.25;;;5.40;93.90;;;;;;5108355;28;20461;-63
2021/03/16 01:34:58;;;;;;;28.57;4.13;;;5.50;93.80;;;;;;5111434;28;20075;-63
2021/03/16 01:37:23;;;;;;;29.73;4.07;;;5.50;93.40;;;;;;5115509;27;20469;-63
2021/03/16 01:39:49;;;;;;;32.37;4.30;;;5.50;93.00;;;;;;5115040;27;20051;-64
2021/03/16 01:42:16;;;;;;;21.50;3.47;;;5.60;93.00;;;;;;5115215;27;20052;-63
2021/03/16 01:44:45;;;;;;;21.48;3.55;;;5.60;92.30;;;;;;5114766;27;20494;-63
2021/03/16 01:47:12;;;;;;;22.42;3.20;;;5.60;92.40;;;;;;5115205;27;20621;-63
2021/03/16 01:49:39;;;;;;;29.23;4.90;;;5.60;92.70;;;;;;5115015;27;20122;-63
2021/03/16 01:52:05;;;;;;;27.42;3.70;;;5.60;92.80;;;;;;5114918;27;20122;-62
2021/03/16 01:54:31;;;;;;;24.92;3.53;;;5.60;93.00;;;;;;5114905;27;20176;-62
2021/03/16 01:57:00;;;;;;;26.53;3.50;;;5.60;92.90;;;;;;5115051;27;20578;-62
2021/03/16 01:59:27;;;;;;;22.92;3.08;;;5.60;92.90;;;;;;5114877;27;20073;-63
2021/03/16 02:01:53;;;;;;;28.65;4.05;;;5.60;92.70;;;;;;5114689;27;20051;-63
2021/03/16 02:04:19;;;;;;;28.40;4.30;;;5.60;92.90;;;;;;5114872;27;20108;-63
2021/03/16 02:06:54;;;;;;;24.23;3.40;;;5.60;93.20;;;;;;5115036;27;20048;-63
2021/03/16 02:09:31;;;;;;;29.25;3.80;;;5.60;93.40;;;;;;5114628;27;20044;-62
2021/03/16 02:12:01;;;;;;;22.33;3.38;;;5.60;93.40;;;;;;5114646;27;20056;-62
2021/03/16 02:14:37;;;;;;;29.25;3.78;;;5.50;93.60;;;;;;5113315;28;20043;-62
2021/03/16 02:17:20;;;;;;;21.50;3.92;;;5.60;92.70;;;;;;5114677;27;20137;-63
2021/03/16 02:20:06;;;;;;;27.15;3.55;;;5.60;92.40;;;;;;5114952;27;20044;-62
2021/03/16 02:22:35;;;;;;;22.65;3.40;;;5.60;92.30;;;;;;5113345;28;20123;-63
2021/03/16 02:25:42;;;;;;;24.80;3.05;;;5.60;92.40;;;;;;5114594;27;20063;-62
2021/03/16 02:28:39;;;;;;;27.58;3.67;;;5.60;92.60;;;;;;5114748;27;20051;-63
2021/03/16 02:31:07;;;;;;;24.63;3.33;;;5.60;92.70;;;;;;5114783;27;20103;-63
2021/03/16 02:33:38;;;;;;;20.83;4.13;;;5.60;92.50;;;;;;5114751;27;20230;-62
2021/03/16 02:36:05;;;;;;;25.80;3.80;;;5.60;92.60;;;;;;5114490;27;20089;-63
2021/03/16 02:38:35;;;;;;;18.23;2.78;;;5.70;92.50;;;;;;5114181;27;20097;-63
2021/03/16 02:41:02;;;;;;;19.83;2.40;;;5.70;92.50;;;;;;5114670;27;20394;-62
2021/03/16 02:43:29;;;;;;;15.10;3.53;;;5.60;92.40;;;;;;5114548;27;20063;-63
2021/03/16 02:45:56;;;;;;;17.27;3.25;;;5.60;92.60;;;;;;5112885;27;20198;-62
2021/03/16 02:48:22;;;;;;;19.92;3.47;;;5.60;92.80;;;;;;5111279;28;20068;-63
2021/03/16 02:50:48;;;;;;;23.40;3.20;;;5.60;92.60;;;;;;5111155;28;20048;-63
2021/03/16 02:53:16;;;;;;;25.13;4.00;;;5.60;92.60;;;;;;5111168;28;20052;-63
2021/03/16 02:55:43;;;;;;;23.38;3.50;;;5.70;92.70;;;;;;5110823;28;20059;-63
2021/03/16 02:58:10;;;;;;;21.13;2.97;;;5.60;92.90;;;;;;5111090;28;20143;-63
2021/03/16 03:00:36;;;;;;;27.23;3.40;;;5.60;93.10;;;;;;5111091;28;20043;-62
2021/03/16 03:03:04;;;;;;;25.13;3.38;;;5.50;93.30;;;;;;5110497;28;20122;-62
2021/03/16 03:05:32;;;;;;;25.88;3.25;;;5.50;93.50;;;;;;5110928;28;20132;-62
2021/03/16 03:07:57;;;;;;;23.27;3.17;;;5.50;93.80;;;;;;5110644;27;20047;-63
2021/03/16 03:10:24;;;;;;;24.27;2.90;;;5.40;93.90;;;;;;5110594;28;20071;-63
2021/03/16 03:12:52;;;;;;;20.35;3.25;;;5.40;94.00;;;;;;5110439;28;20047;-63
2021/03/16 03:15:18;;;;;;;20.90;2.75;;;5.40;94.00;;;;;;5110721;28;20043;-63
2021/03/16 03:17:43;;;;;;;27.60;4.27;;;5.40;94.20;;;;;;5110538;28;20087;-63
2021/03/16 03:20:12;;;;;;;30.93;3.77;;;5.40;94.40;;;;;;5110295;27;20482;-63
2021/03/16 03:22:45;;;;;;;31.48;4.13;;;5.40;94.50;;;;;;5110477;28;20241;-63
2021/03/16 03:25:20;;;;;;;23.63;3.83;;;5.40;95.00;;;;;;5110395;28;20057;-62
2021/03/16 03:27:52;;;;;;;26.98;3.90;;;5.30;94.90;;;;;;5110228;28;20051;-63
2021/03/16 03:30:19;;;;;;;30.02;3.55;;;5.40;95.00;;;;;;5110231;28;20075;-63
2021/03/16 03:32:47;;;;;;;21.02;2.83;;;5.30;95.00;;;;;;5110294;28;20142;-63
2021/03/16 03:35:15;;;;;;;33.83;4.67;;;5.40;95.30;;;;;;5110119;27;20116;-62
2021/03/16 03:37:43;;;;;;;32.40;4.60;;;5.40;95.30;;;;;;5110512;28;20172;-64
2021/03/16 03:40:12;;;;;;;29.73;3.75;;;5.40;95.40;;;;;;5110360;28;20051;-63
2021/03/16 03:42:38;;;;;;;25.52;3.50;;;5.40;95.40;;;;;;5110146;28;20374;-61
2021/03/16 03:45:06;;;;;;;28.92;4.38;;;5.40;95.50;;;;;;5109920;28;20107;-62
2021/03/16 03:47:32;;;;;;;29.20;3.65;;;5.40;95.60;;;;;;5110170;28;20051;-63
2021/03/16 03:49:59;;;;;;;24.92;3.80;;;5.40;95.60;;;;;;5109820;28;20095;-62
2021/03/16 03:52:25;;;;;;;29.35;4.82;;;5.40;95.60;;;;;;5109754;28;20048;-63
2021/03/16 03:54:52;;;;;;;32.35;4.38;;;5.40;95.60;;;;;;5109828;27;20043;-63
2021/03/16 03:57:18;;;;;;;28.27;4.05;;;5.40;95.80;;;;;;5109747;28;20108;-63
2021/03/16 03:59:48;;;;;;;30.17;4.03;;;5.40;95.80;;;;;;5109876;28;20052;-62
2021/03/16 04:02:15;;;;;;;29.42;3.95;;;5.30;95.90;;;;;;5109102;28;20091;-62
2021/03/16 04:04:41;;;;;;;34.88;4.45;;;5.40;96.20;;;;;;5109819;28;20089;-63
2021/03/16 04:07:08;;;;;;;26.05;3.67;;;5.40;96.00;;;;;;5108179;28;20067;-62
2021/03/16 04:09:34;;;;;;;27.45;4.22;;;5.30;96.10;;;;;;5109510;28;20105;-63
2021/03/16 04:12:02;;;;;;;31.15;4.00;;;5.40;96.20;;;;;;5109387;28;20047;-63
2021/03/16 04:14:29;;;;;;;26.05;3.97;;;5.40;96.10;;;;;;5109767;28;20096;-63
2021/03/16 04:16:57;;;;;;;34.85;4.85;;;5.40;96.00;;;;;;5109487;28;20625;-63
2021/03/16 04:19:23;;;;;;;19.27;3.58;;;5.40;96.10;;;;;;5109133;28;20457;-63
2021/03/16 04:21:50;;;;;;;18.92;3.45;;;5.40;96.00;;;;;;5109572;28;20036;-63
2021/03/16 04:24:16;;;;;;;28.13;3.80;;;5.40;96.10;;;;;;5109712;28;20485;-63
2021/03/16 04:26:42;;;;;;;24.30;4.13;;;5.40;96.00;;;;;;5109733;28;20039;-63
2021/03/16 04:29:08;;;;;;;26.30;3.90;;;5.40;96.10;;;;;;5109261;28;20171;-63
2021/03/16 04:31:33;;;;;;;17.50;2.83;;;5.40;96.00;;;;;;5109362;28;20411;-63
2021/03/16 04:33:59;;;;;;;26.87;3.60;;;5.40;96.10;;;;;;5109280;28;20048;-63
2021/03/16 04:36:25;;;;;;;24.87;3.63;;;5.30;96.00;;;;;;5109338;28;20082;-62
2021/03/16 04:38:50;;;;;;;26.90;4.23;;;5.30;96.00;;;;;;5108979;28;20147;-63
2021/03/16 04:41:16;;;;;;;25.30;3.57;;;5.30;96.00;;;;;;5109345;28;20082;-63
2021/03/16 04:43:44;;;;;;;25.53;3.57;;;5.30;96.20;;;;;;5109210;28;20157;-63
2021/03/16 04:46:11;;;;;;;29.70;3.47;;;5.30;96.20;;;;;;5107509;28;20482;-63
2021/03/16 04:48:37;;;;;;;22.95;3.50;;;5.20;96.30;;;;;;5109055;28;20763;-63
2021/03/16 04:51:03;;;;;;;31.07;3.40;;;5.20;96.40;;;;;;5108867;28;20121;-63
2021/03/16 04:53:28;;;;;;;27.57;4.13;;;5.20;96.40;;;;;;5108944;28;20047;-63
2021/03/16 04:55:54;;;;;;;28.87;3.23;;;5.20;96.30;;;;;;5108370;28;20043;-63
2021/03/16 04:58:21;;;;;;;21.30;3.35;;;5.20;96.50;;;;;;5108791;28;20071;-63
2021/03/16 05:00:47;;;;;;;26.97;3.47;;;5.10;96.60;;;;;;5108445;28;20493;-63
2021/03/16 05:03:12;;;;;;;30.17;3.67;;;5.10;96.90;;;;;;5108701;28;20048;-63
2021/03/16 05:05:38;;;;;;;26.50;3.17;;;5.10;96.70;;;;;;5108285;28;20073;-63
2021/03/16 05:08:04;;;;;;;21.20;3.10;;;5.00;96.80;;;;;;5108454;28;20048;-62
2021/03/16 05:10:30;;;;;;;22.23;2.93;;;4.90;96.90;;;;;;5108068;28;20051;-63
2021/03/16 05:12:55;;;;;;;27.30;3.50;;;4.80;97.10;;;;;;5108296;28;20082;-63
2021/03/16 05:15:21;;;;;;;26.15;3.88;;;4.70;97.40;;;;;;5106254;28;20060;-62
2021/03/16 05:17:47;;;;;;;23.47;3.37;;;4.70;97.30;;;;;;5108216;28;20044;-62
2021/03/16 05:20:13;;;;;;;30.40;3.93;;;4.70;97.40;;;;;;5108181;28;20047;-63
2021/03/16 05:22:38;;;;;;;32.73;3.53;;;4.70;97.30;;;;;;5108047;28;20165;-63
2021/03/16 05:25:06;;;;;;;22.83;3.43;;;4.70;97.30;;;;;;5108023;28;20059;-63
2021/03/16 05:27:32;;;;;;;27.88;3.15;;;4.70;97.30;;;;;;5107969;28;20047;-63
2021/03/16 05:29:58;;;;;;;23.20;3.40;;;4.70;97.50;;;;;;5107803;28;20075;-63
2021/03/16 05:32:23;;;;;;;20.70;2.97;;;4.80;97.40;;;;;;5107924;28;20487;-63
2021/03/16 05:34:49;;;;;;;22.83;2.83;;;4.80;97.40;;;;;;5108134;28;20061;-64
2021/03/16 05:37:15;;;;;;;29.07;3.67;;;4.80;97.40;;;;;;5107820;28;20043;-63
2021/03/16 05:39:40;;;;;;;28.67;4.17;;;4.80;97.40;;;;;;5107573;28;20164;-63
2021/03/16 05:42:07;;;;;;;26.03;3.37;;;4.80;97.40;;;;;;5107049;28;20094;-63
2021/03/16 05:44:32;;;;;;;26.30;3.38;;;4.90;97.30;;;;;;5107379;28;20064;-63
2021/03/16 05:47:00;;;;;;;23.50;3.77;;;4.90;97.30;;;;;;5107602;28;20123;-63
2021/03/16 05:49:26;;;;;;;19.00;3.00;;;4.90;97.20;;;;;;5107880;28;20048;-63
2021/03/16 05:51:53;;;;;;;23.67;3.15;;;5.00;97.10;;;;;;5107401;28;20117;-63
2021/03/16 05:54:19;;;;;;;24.58;2.97;;;5.00;97.10;;;;;;5107976;28;20055;-62
2021/03/16 05:56:45;;;;;;;21.13;2.72;;;5.00;97.10;;;;;;5108079;28;20055;-63
2021/03/16 05:59:11;;;;;;;31.17;3.60;;;5.00;97.00;;;;;;5106576;28;20491;-63
2021/03/16 06:01:36;;;;;;;29.07;4.10;;;5.00;97.00;;;;;;5107785;28;20059;-63
2021/03/16 06:04:02;;;;;;;20.90;3.30;;;5.10;97.10;;;;;;5107799;28;20070;-63
2021/03/16 06:06:31;;;;;;;24.90;3.83;;;5.10;97.00;;;;;;5107851;28;20098;-63
2021/03/16 06:08:58;;;;;;;33.83;3.97;;;5.00;97.00;;;;;;5106056;28;20430;-63
2021/03/16 06:11:25;;;;;;;24.70;2.97;;;5.00;97.10;;;;;;5107888;28;20104;-63
2021/03/16 06:13:54;;;;;;;30.40;4.55;;;5.00;97.00;;;;;;5106303;28;20105;-61
2021/03/16 06:16:20;;;;;;;35.92;5.78;;;5.10;97.10;;;;;;5106902;28;20094;-69
2021/03/16 06:18:47;;;;;;;20.65;3.00;;;5.20;97.20;;;;;;5106070;28;20055;-64
2021/03/16 06:21:24;;;;;;;27.83;3.60;;;5.20;96.70;;;;;;5108228;28;20195;-64
2021/03/16 06:23:55;;;;;;;17.42;2.65;;;5.20;96.60;;;;;;5111669;28;20073;-63
2021/03/16 06:26:25;;;;;;;27.05;3.80;;;5.20;96.60;;;;;;5111507;28;20262;-62
2021/03/16 06:29:04;;;;;;;21.60;3.90;;;5.20;96.60;;;;;;5111058;28;20505;-64
2021/03/16 06:31:31;;;;;;;25.17;3.28;;;5.20;96.60;;;;;;5110867;28;20071;-63
2021/03/16 06:33:57;;;;;;;26.30;3.60;;;5.20;96.60;;;;;;5110555;28;20036;-63
2021/03/16 06:36:31;;;;;;;29.25;3.72;;;5.10;96.60;;;;;;5110754;28;20101;-63
2021/03/16 06:38:57;;;;;;;31.80;3.83;;;5.10;96.70;;;;;;5110970;27;20055;-63
2021/03/16 06:41:25;;;;;;;30.90;3.97;;;5.00;97.00;;;;;;5110481;28;20108;-63
2021/03/16 06:44:00;;;;;;;23.67;3.53;;;5.00;97.00;;;;;;5111190;28;20051;-63
2021/03/16 06:46:37;;;;;;;20.90;3.40;;;5.00;96.90;;;;;;5110963;28;20086;-64
2021/03/16 06:49:17;;;;;;;25.27;3.50;;;5.10;96.80;;;;;;5110851;28;20115;-64
2021/03/16 06:51:43;;;;;;;20.23;3.22;;;5.10;96.60;;;;;;5110314;28;20128;-64
2021/03/16 06:54:20;;;;;;;29.40;3.78;;;5.10;96.60;;;;;;5126036;27;20039;-63
2021/03/16 06:56:54;;;;;;;21.58;3.45;;;5.10;96.70;;;;;;5099551;28;20086;-64
2021/03/16 06:59:25;;;;;;;29.02;3.50;;;5.10;96.80;;;;;;5090798;28;20055;-62
2021/03/16 07:01:51;;;;;;;22.30;3.08;;;5.20;97.00;;;;;;5092481;28;20059;-66
2021/03/16 07:04:18;;;;;;;23.95;3.30;;;5.20;96.70;;;;;;5092476;28;20427;-63
2021/03/16 07:06:48;;;;;;;27.45;4.40;;;5.10;96.50;;;;;;5110307;28;20043;-63
2021/03/16 07:09:15;;;;;;;23.35;3.00;;;5.20;96.50;;;;;;5109946;28;20044;-62
2021/03/16 07:11:50;;;;;;;26.13;4.07;;;5.30;96.20;;;;;;5105036;27;20044;-63
2021/03/16 07:14:18;;;;;;;24.38;2.47;;;5.40;95.90;;;;;;5108524;28;20673;-63
2021/03/16 07:16:46;;;;;;;21.20;3.53;;;5.60;95.90;;;;;;5095697;28;20474;-63
2021/03/16 07:19:13;;;;;;;28.58;4.03;;;5.60;95.80;;;;;;5088133;28;20070;-64
2021/03/16 07:21:46;;;;;;;30.50;4.38;;;5.70;95.70;;;;;;5105791;28;20051;-64
2021/03/16 07:24:13;;;;;;;30.52;3.65;;;5.80;95.30;;;;;;5108250;28;20043;-64
2021/03/16 07:26:39;;;;;;;25.52;3.40;;;6.00;95.40;;;;;;5108351;28;20063;-64
2021/03/16 07:29:06;;;;;;;24.80;3.85;;;6.00;95.00;;;;;;5106715;28;20122;-63
2021/03/16 07:31:36;;;;;;;19.48;3.38;;;6.10;94.90;;;;;;5107439;28;20477;-64
2021/03/16 07:34:06;;;;;;;24.40;3.70;;;6.10;94.30;;;;;;5107686;28;20051;-63
2021/03/16 07:36:35;;;;;;;32.30;4.00;;;6.10;94.40;;;;;;5108127;28;20043;-63
2021/03/16 07:39:04;;;;;;;19.77;3.03;;;6.10;94.70;;;;;;5107897;28;20134;-62
2021/03/16 07:41:31;;;;;;;22.75;3.58;;;6.20;94.70;;;;;;5107460;28;20363;-64
2021/03/16 07:44:08;;;;;;;22.60;3.35;;;6.20;94.40;;;;;;5109164;28;20048;-65
2021/03/16 07:46:43;;;;;;;18.83;3.50;;;6.20;94.30;;;;;;5097135;28;20471;-64
2021/03/16 07:49:12;;;;;;;18.80;3.20;;;6.30;94.20;;;;;;5089341;28;20149;-64
2021/03/16 07:51:41;;;;;;;22.67;3.03;;;6.30;94.30;;;;;;5088271;28;20141;-64
2021/03/16 07:54:08;;;;;;;25.95;3.08;;;6.20;94.30;;;;;;5105469;28;20614;-64
2021/03/16 07:56:35;;;;;;;24.63;3.85;;;6.30;94.30;;;;;;5108377;28;20047;-64
2021/03/16 07:59:03;;;;;;;22.88;3.10;;;6.30;94.30;;;;;;5108885;28;20075;-64
2021/03/16 08:01:28;;;;;;;20.38;3.35;;;6.30;94.00;;;;;;5108399;28;20059;-64
2021/03/16 08:04:04;;;;;;;15.17;2.60;;;6.30;94.00;;;;;;5108862;28;20455;-64
2021/03/16 08:06:31;;;;;;;22.33;2.85;;;6.50;94.00;;;;;;5108705;28;20044;-64
2021/03/16 08:08:57;;;;;;;19.17;3.83;;;6.70;93.90;;;;;;5108613;28;20078;-64
2021/03/16 08:11:35;;;;;;;26.00;3.60;;;6.70;93.20;;;;;;5108827;28;20091;-68
2021/03/16 08:14:03;;;;;;;19.95;3.95;;;6.80;93.00;;;;;;5105916;28;20082;-64
2021/03/16 08:16:37;;;;;;;34.55;3.33;;;6.80;92.90;;;;;;5093403;28;20072;-64
2021/03/16 08:19:10;;;;;;;20.50;3.22;;;6.80;92.10;;;;;;5088147;28;20583;-64
2021/03/16 08:21:36;;;;;;;21.75;3.08;;;7.00;92.60;;;;;;5107016;28;20055;-63
2021/03/16 08:24:04;;;;;;;19.80;2.85;;;7.10;92.50;;;;;;5108712;28;20056;-63
2021/03/16 08:26:29;;;;;;;22.52;2.90;;;7.10;92.00;;;;;;5108807;28;20094;-64
2021/03/16 08:28:56;;;;;;;23.47;2.93;;;7.10;91.80;;;;;;5115101;28;20107;-62
2021/03/16 08:31:22;;;;;;;25.08;3.08;;;7.10;91.70;;;;;;5124849;28;20134;-61
2021/03/16 08:33:48;;;;;;;24.40;3.43;;;7.20;91.20;;;;;;5124046;28;20091;-62
2021/03/16 08:36:14;;;;;;;22.48;2.60;;;7.10;91.00;;;;;;5124742;27;20044;-61
2021/03/16 08:38:39;;;;;;;21.00;2.77;;;7.10;91.20;;;;;;5119519;28;20046;-63
2021/03/16 08:41:16;;;;;;;22.53;2.73;;;7.20;90.60;;;;;;5108446;28;20053;-64
2021/03/16 08:43:46;;;;;;;13.85;2.70;;;7.10;91.10;;;;;;5107874;28;20077;-62
2021/03/16 08:46:12;;;;;;;16.25;3.13;;;7.20;89.60;;;;;;5108340;28;20134;-61
2021/03/16 08:48:40;;;;;;;11.47;2.00;;;7.30;89.40;;;;;;5108710;28;20048;-62
2021/03/16 08:51:06;;;;;;;20.05;2.53;;;7.50;89.80;;;;;;5108188;28;20061;-63
2021/03/16 08:53:32;;;;;;;14.87;2.27;;;7.50;88.00;;;;;;5108306;28;20043;-62
2021/03/16 08:55:58;;;;;;;16.87;2.23;;;7.50;86.10;;;;;;5108089;28;20075;-64
2021/03/16 08:58:24;;;;;;;24.92;3.22;;;7.50;88.10;;;;;;5108266;28;20057;-63
2021/03/16 09:00:50;;;;;;;13.70;2.37;;;7.40;86.60;;;;;;5108718;28;20126;-65
2021/03/16 09:03:26;;;;;;;13.87;1.97;;;7.20;86.20;;;;;;5107744;28;20059;-61
2021/03/16 09:05:52;;;;;;;18.52;2.50;;;7.20;86.60;;;;;;5106767;28;20059;-60
2021/03/16 09:08:20;;;;;;;12.07;1.73;;;7.20;87.20;;;;;;5107299;28;20064;-62
2021/03/16 09:10:48;;;;;;;12.53;2.03;;;7.20;85.20;;;;;;5107229;28;20446;-64
2021/03/16 09:13:23;;;;;;;16.17;2.47;;;7.20;86.60;;;;;;5107673;28;20640;-63
2021/03/16 09:15:50;;;;;;;15.57;2.30;;;7.20;82.30;;;;;;5107813;28;20046;-63
2021/03/16 09:18:15;;;;;;;9.43;2.38;;;7.20;82.40;;;;;;5107286;28;20091;-63
2021/03/16 09:20:42;;;;;;;13.60;2.45;;;7.20;83.20;;;;;;5107573;28;20538;-63
2021/03/16 09:23:10;;;;;;;11.17;2.27;;;7.30;80.80;;;;;;5108175;28;20051;-59
2021/03/16 09:25:40;;;;;;;11.80;2.70;;;7.30;83.00;;;;;;5108799;28;20050;-64
2021/03/16 09:28:14;;;;;;;15.18;2.10;;;7.40;80.70;;;;;;5108210;28;20048;-64
2021/03/16 09:30:51;;;;;;;9.75;1.77;;;7.50;80.40;;;;;;5117171;27;20055;-61
2021/03/16 09:33:22;;;;;;;7.22;1.52;;;7.60;78.60;;;;;;5129635;27;20114;-64
2021/03/16 09:36:01;;;;;;;10.47;2.00;;;7.60;77.30;;;;;;5126730;27;20330;-64
2021/03/16 09:38:28;;;;;;;7.32;1.58;;;7.70;76.00;;;;;;5128396;27;20303;-64
2021/03/16 09:40:54;;;;;;;8.43;1.70;;;7.50;75.00;;;;;;5128571;27;20051;-64
2021/03/16 09:43:27;;;;;;;8.65;1.83;;;7.70;77.80;;;;;;5127883;27;20091;-63
2021/03/16 09:45:55;;;;;;;6.07;2.00;;;7.80;77.20;;;;;;5130544;28;20086;-65
2021/03/16 09:48:21;;;;;;;9.85;1.55;;;7.90;76.20;;;;;;5125463;27;20058;-64
2021/03/16 09:50:47;;;;;;;12.23;1.93;;;8.00;76.80;;;;;;5107300;28;20081;-64
2021/03/16 09:53:15;;;;;;;9.87;2.33;;;8.10;77.30;;;;;;5108100;28;20305;-65
2021/03/16 09:55:42;;;;;;;11.87;2.07;;;8.30;76.20;;;;;;5108258;28;20324;-64
2021/03/16 09:58:19;;;;;;;10.57;1.67;;;8.20;76.80;;;;;;5110362;28;20633;-64
2021/03/16 10:00:50;;;;;;;14.60;2.53;;;8.30;77.30;;;;;;5108941;27;20574;-65
2021/03/16 10:03:19;;;;;;;13.02;1.88;;;8.30;77.40;;;;;;5108218;28;20044;-64
2021/03/16 10:05:49;;;;;;;8.53;1.80;;;8.40;77.00;;;;;;5108363;28;20123;-65
2021/03/16 10:08:25;;;;;;;14.17;2.73;;;8.30;76.40;;;;;;5107872;28;20297;-64
2021/03/16 10:10:52;;;;;;;9.17;2.00;;;8.10;76.80;;;;;;5109373;28;20297;-65
2021/03/16 10:13:36;;;;;;;10.27;2.30;;;8.10;78.00;;;;;;5109811;28;20407;-65
2021/03/16 10:16:10;;;;;;;13.63;2.60;;;8.20;77.90;;;;;;5109559;28;20414;-64
2021/03/16 10:18:41;;;;;;;12.13;1.90;;;8.30;76.80;;;;;;5108631;28;20047;-65
2021/03/16 10:21:07;;;;;;;10.17;1.77;;;8.40;75.10;;;;;;5109813;28;20112;-64
2021/03/16 10:23:33;;;;;;;10.37;1.73;;;8.50;75.20;;;;;;5110049;28;20372;-64
2021/03/16 10:26:07;;;;;;;8.43;2.10;;;8.40;74.20;;;;;;5109608;28;20094;-65
2021/03/16 10:28:38;;;;;;;10.18;1.70;;;8.50;73.50;;;;;;5110988;28;20055;-64
2021/03/16 10:31:25;;;;;;;12.73;2.03;;;8.50;74.10;;;;;;5111066;27;20104;-64
2021/03/16 10:33:55;;;;;;;11.57;1.90;;;8.50;72.40;;;;;;5110556;28;20313;-65
2021/03/16 10:36:22;;;;;;;10.40;1.60;;;8.60;72.40;;;;;;5110857;28;20303;-64
2021/03/16 10:38:51;;;;;;;12.00;1.80;;;8.80;72.60;;;;;;5111675;28;20312;-64
2021/03/16 10:41:18;;;;;;;11.67;1.70;;;8.80;71.80;;;;;;5111932;27;20807;-64
2021/03/16 10:43:44;;;;;;;10.10;1.90;;;9.00;72.30;;;;;;5110842;28;20700;-64
2021/03/16 10:46:10;;;;;;;12.13;2.00;;;9.00;70.50;;;;;;5111493;28;20328;-65
2021/03/16 10:48:35;;;;;;;11.20;2.40;;;9.10;71.60;;;;;;5110949;28;20440;-65
2021/03/16 10:51:01;;;;;;;9.87;1.93;;;9.00;73.10;;;;;;5111243;28;20100;-65
2021/03/16 10:53:27;;;;;;;10.00;1.70;;;8.80;72.10;;;;;;5111337;28;20055;-65
2021/03/16 10:55:53;;;;;;;9.73;1.83;;;8.60;73.10;;;;;;5111053;28;20654;-64
2021/03/16 10:58:18;;;;;;;9.43;1.83;;;8.50;74.00;;;;;;5110494;28;20532;-65
2021/03/16 11:00:44;;;;;;;12.23;2.20;;;8.40;71.50;;;;;;5110444;28;20050;-65
2021/03/16 11:03:10;;;;;;;8.33;2.30;;;8.50;70.90;;;;;;5110854;28;20397;-64
2021/03/16 11:05:35;;;;;;;12.93;2.27;;;8.60;72.10;;;;;;5110631;28;20047;-64
2021/03/16 11:08:01;;;;;;;8.17;1.90;;;8.70;70.10;;;;;;5109669;28;20480;-64
2021/03/16 11:10:27;;;;;;;7.57;1.63;;;8.90;70.40;;;;;;5110789;28;20355;-64
2021/03/16 11:12:53;;;;;;;12.93;1.90;;;9.10;71.00;;;;;;5110551;28;20051;-64
2021/03/16 11:15:19;;;;;;;9.07;1.90;;;9.00;71.50;;;;;;5110412;28;20297;-66
2021/03/16 11:17:45;;;;;;;10.43;1.60;;;8.70;70.80;;;;;;5110486;28;20374;-65
2021/03/16 11:20:12;;;;;;;7.50;1.67;;;8.50;73.50;;;;;;5108711;28;20297;-65
2021/03/16 11:22:38;;;;;;;10.00;1.67;;;8.50;74.40;;;;;;5110914;28;20052;-64
2021/03/16 11:25:05;;;;;;;7.50;1.93;;;8.60;72.80;;;;;;5109698;28;20789;-63
2021/03/16 11:27:31;;;;;;;6.97;1.73;;;8.70;71.70;;;;;;5110279;28;20062;-63
2021/03/16 11:29:57;;;;;;;10.67;2.27;;;8.80;70.00;;;;;;5109369;28;20308;-63
2021/03/16 11:32:22;;;;;;;10.83;2.10;;;8.70;71.40;;;;;;5110099;28;20078;-63
2021/03/16 11:34:48;;;;;;;8.73;1.37;;;8.70;70.60;;;;;;5109846;28;20149;-63
2021/03/16 11:37:13;;;;;;;12.93;3.17;;;8.50;72.40;;;;;;5110403;28;20931;-64
2021/03/16 11:39:40;;;;;;;7.60;1.93;;;8.50;71.60;;;;;;5110473;28;20047;-64
2021/03/16 11:42:06;;;;;;;8.03;1.60;;;8.50;72.40;;;;;;5110528;28;20055;-64
2021/03/16 11:44:31;;;;;;;9.87;2.43;;;8.40;71.00;;;;;;5110307;28;20320;-64
2021/03/16 11:46:57;;;;;;;15.90;2.40;;;8.40;72.40;;;;;;5109918;28;20059;-63
2021/03/16 11:49:23;;;;;;;11.97;2.53;;;8.40;71.80;;;;;;5110432;28;20052;-64
2021/03/16 11:51:48;;;;;;;9.33;1.40;;;8.60;72.40;;;;;;5109735;28;20047;-64
2021/03/16 11:54:14;;;;;;;10.00;1.90;;;8.70;71.70;;;;;;5109769;28;20105;-64
2021/03/16 11:56:40;;;;;;;12.77;1.77;;;9.00;71.80;;;;;;5110023;28;20178;-63
2021/03/16 11:59:05;;;;;;;8.13;1.80;;;9.20;69.60;;;;;;5116025;28;20047;-68
2021/03/16 12:01:31;;;;;;;9.30;1.63;;;9.40;68.00;;;;;;5127928;28;20040;-76
2021/03/16 12:03:57;;;;;;;7.23;1.80;;;9.30;70.00;;;;;;5110617;28;20435;-63
2021/03/16 12:06:22;;;;;;;13.47;1.80;;;9.20;66.80;;;;;;5109733;28;20051;-63
2021/03/16 12:08:48;;;;;;;8.37;1.63;;;9.20;67.40;;;;;;5109688;28;20091;-63
2021/03/16 12:11:14;;;;;;;9.33;1.97;;;9.10;70.60;;;;;;5109160;28;20160;-64
2021/03/16 12:13:40;;;;;;;7.77;1.50;;;9.00;69.90;;;;;;5109491;28;20483;-63
2021/03/16 12:16:06;;;;;;;8.10;1.40;;;9.00;70.50;;;;;;5109706;28;20571;-64
2021/03/16 12:18:32;;;;;;;11.77;2.20;;;9.10;73.30;;;;;;5109647;28;20071;-64
2021/03/16 12:20:58;;;;;;;11.10;2.10;;;9.00;69.30;;;;;;5109558;28;20316;-64
2021/03/16 12:23:25;;;;;;;8.50;1.50;;;8.80;68.60;;;;;;5107729;28;20293;-64
2021/03/16 12:25:53;;;;;;;7.77;1.50;;;8.70;68.20;;;;;;5109482;28;20791;-64
2021/03/16 12:28:19;;;;;;;6.20;1.60;;;8.70;66.20;;;;;;5109047;28;20336;-63
2021/03/16 12:30:45;;;;;;;8.07;1.60;;;8.70;65.60;;;;;;5109166;28;20309;-63
2021/03/16 12:33:11;;;;;;;6.40;1.33;;;8.70;65.70;;;;;;5108915;28;20370;-63
2021/03/16 12:35:37;;;;;;;10.37;1.40;;;8.70;67.30;;;;;;5109274;28;20050;-64
2021/03/16 12:38:03;;;;;;;9.53;1.80;;;8.90;65.70;;;;;;5108815;28;20530;-63
2021/03/16 12:40:30;;;;;;;6.37;1.30;;;9.00;63.80;;;;;;5109326;28;20055;-63
2021/03/16 12:42:55;;;;;;;8.20;1.40;;;9.10;61.30;;;;;;5108764;28;20774;-63
2021/03/16 12:45:21;;;;;;;8.43;1.70;;;9.20;61.20;;;;;;5109197;28;20301;-63
2021/03/16 12:47:47;;;;;;;9.87;1.43;;;9.20;60.30;;;;;;5109014;28;20051;-63
2021/03/16 12:50:13;;;;;;;7.13;1.47;;;9.30;62.30;;;;;;5108734;28;20648;-63
2021/03/16 12:52:39;;;;;;;6.00;1.33;;;9.10;62.30;;;;;;5108490;28;20051;-63